Time;durP1;ratioP1;P1;durP2;ratioP2;P2;SDS_P1;SDS_P2;PMS_P1;PMS_P2;Temp;Humidity;BMP_temperature;BMP_pressure;BME280_temperature;BME280_humidity;BME280_pressure;Samples;Min_cycle;Max_cycle;Signal;HPM_P1;HPM_P2
2021/12/29 00:00:46;;;;;;;42.50;12.30;;;;;;;;;;5102973;27;20110;-74
2021/12/29 00:03:12;;;;;;;61.97;12.98;;;;;;;;;;5103554;28;20038;-74
2021/12/29 00:05:38;;;;;;;51.25;13.38;;;;;;;;;;5098075;28;20036;-74
2021/12/29 00:08:05;;;;;;;52.00;13.02;;;;;;;;;;5106085;28;20400;-74
2021/12/29 00:10:32;;;;;;;62.92;14.65;;;;;;;;;;5104405;28;20023;-74
2021/12/29 00:12:58;;;;;;;56.72;14.00;;;;;;;;;;5104298;28;20085;-74
2021/12/29 00:15:26;;;;;;;52.70;14.52;;;;;;;;;;5103882;28;20046;-74
2021/12/29 00:17:52;;;;;;;49.65;14.25;;;;;;;;;;5102944;28;20023;-74
2021/12/29 00:20:22;;;;;;;45.30;14.07;;;;;;;;;;5102401;28;20036;-74
2021/12/29 00:22:48;;;;;;;47.00;13.45;;;;;;;;;;5103289;28;20034;-74
2021/12/29 00:25:14;;;;;;;55.15;13.98;;;;;;;;;;5097090;28;20031;-74
2021/12/29 00:27:40;;;;;;;48.42;14.02;;;;;;;;;;5105853;28;20045;-74
2021/12/29 00:30:08;;;;;;;87.03;17.02;;;;;;;;;;5106046;28;20047;-74
2021/12/29 00:32:34;;;;;;;43.67;14.65;;;;;;;;;;5098888;28;20032;-74
2021/12/29 00:35:00;;;;;;;55.50;15.98;;;;;;;;;;5096742;28;20543;-74
2021/12/29 00:37:26;;;;;;;58.83;15.55;;;;;;;;;;5099917;28;20035;-74
2021/12/29 00:39:52;;;;;;;70.28;17.50;;;;;;;;;;5088504;28;20474;-74
2021/12/29 00:42:19;;;;;;;53.28;17.05;;;;;;;;;;5096430;28;20039;-74
2021/12/29 00:44:45;;;;;;;70.13;15.73;;;;;;;;;;5102371;28;20035;-74
2021/12/29 00:47:14;;;;;;;119.75;17.30;;;;;;;;;;5094088;28;20086;-74
2021/12/29 00:49:40;;;;;;;107.63;16.10;;;;;;;;;;5096303;28;20039;-74
2021/12/29 00:52:07;;;;;;;167.07;17.77;;;;;;;;;;5077045;28;20036;-74
2021/12/29 00:54:34;;;;;;;120.25;17.63;;;;;;;;;;5099661;28;20067;-74
2021/12/29 00:57:00;;;;;;;120.95;15.85;;;;;;;;;;5107878;28;20032;-74
2021/12/29 00:59:26;;;;;;;82.38;15.63;;;;;;;;;;5103555;28;20439;-74
2021/12/29 01:01:53;;;;;;;67.00;13.93;;;;;;;;;;5113555;27;20039;-74
2021/12/29 01:04:20;;;;;;;89.65;13.55;;;;;;;;;;5089628;28;20024;-73
2021/12/29 01:06:46;;;;;;;126.28;14.90;;;;;;;;;;5108572;28;20034;-75
2021/12/29 01:09:12;;;;;;;147.43;17.02;;;;;;;;;;5105779;28;20040;-74
2021/12/29 01:11:39;;;;;;;161.57;14.98;;;;;;;;;;5109136;28;20051;-75
2021/12/29 01:14:07;;;;;;;186.25;18.80;;;;;;;;;;5105429;28;20024;-77
2021/12/29 01:19:19;;;;;;;105.28;18.95;;;;;;;;;;5102260;28;20067;-77
2021/12/29 01:21:47;;;;;;;199.15;26.40;;;;;;;;;;5099586;28;20028;-77
2021/12/29 01:24:13;;;;;;;107.38;20.13;;;;;;;;;;5109360;28;20043;-76
2021/12/29 01:26:42;;;;;;;164.75;16.48;;;;;;;;;;5106387;28;20099;-75
2021/12/29 01:29:08;;;;;;;94.55;12.68;;;;;;;;;;5104455;28;20385;-75
2021/12/29 01:31:34;;;;;;;83.05;10.60;;;;;;;;;;5090602;28;20378;-75
2021/12/29 01:34:04;;;;;;;87.15;10.00;;;;;;;;;;5103445;27;20473;-76
2021/12/29 01:36:31;;;;;;;101.57;10.38;;;;;;;;;;5102843;28;20437;-75
2021/12/29 01:38:57;;;;;;;95.07;12.32;;;;;;;;;;5098030;28;20017;-75
2021/12/29 01:41:23;;;;;;;82.68;10.02;;;;;;;;;;5106630;28;20038;-75
2021/12/29 01:43:49;;;;;;;108.35;9.73;;;;;;;;;;5110022;28;20020;-75
2021/12/29 01:46:15;;;;;;;105.22;11.18;;;;;;;;;;5102757;28;20020;-74
2021/12/29 01:48:41;;;;;;;66.72;11.60;;;;;;;;;;5111440;28;20378;-74
2021/12/29 01:51:07;;;;;;;55.35;10.95;;;;;;;;;;5112574;27;20024;-73
2021/12/29 01:53:35;;;;;;;59.70;13.20;;;;;;;;;;5107525;28;20040;-74
2021/12/29 01:56:01;;;;;;;65.85;14.73;;;;;;;;;;5091781;28;20032;-74
2021/12/29 01:58:28;;;;;;;74.78;13.98;;;;;;;;;;5105105;28;20029;-74
2021/12/29 02:00:55;;;;;;;75.72;15.40;;;;;;;;;;5079921;28;20115;-73
2021/12/29 02:03:21;;;;;;;66.97;15.02;;;;;;;;;;5105404;28;20036;-75
2021/12/29 02:05:48;;;;;;;76.25;18.02;;;;;;;;;;5110787;28;20058;-74
2021/12/29 02:08:21;;;;;;;73.82;19.52;;;;;;;;;;5108261;27;20076;-75
2021/12/29 02:10:47;;;;;;;66.53;18.33;;;;;;;;;;5099323;28;20028;-75
2021/12/29 02:13:14;;;;;;;62.70;17.42;;;;;;;;;;5102008;28;20043;-74
2021/12/29 02:15:40;;;;;;;67.32;17.70;;;;;;;;;;5100652;28;20047;-74
2021/12/29 02:18:15;;;;;;;62.30;18.75;;;;;;;;;;5105426;28;20103;-74
2021/12/29 02:20:44;;;;;;;45.88;17.13;;;;;;;;;;5108299;28;20031;-73
2021/12/29 02:23:15;;;;;;;51.30;18.42;;;;;;;;;;5112426;28;20032;-74
2021/12/29 02:25:50;;;;;;;57.75;18.73;;;;;;;;;;5104636;27;20078;-74
2021/12/29 02:28:26;;;;;;;54.67;17.65;;;;;;;;;;5107119;28;20032;-73
2021/12/29 02:30:55;;;;;;;46.65;17.88;;;;;;;;;;5102624;27;20027;-78
2021/12/29 02:33:22;;;;;;;44.35;17.05;;;;;;;;;;5109723;28;20040;-76
2021/12/29 02:35:48;;;;;;;56.75;31.90;;;;;;;;;;5100767;28;20077;-77
2021/12/29 02:38:18;;;;;;;34.78;15.52;;;;;;;;;;5110030;28;20024;-77
2021/12/29 02:40:44;;;;;;;40.67;16.08;;;;;;;;;;5098654;28;20038;-77
2021/12/29 02:43:15;;;;;;;37.58;15.55;;;;;;;;;;5106139;27;20072;-83
2021/12/29 02:45:41;;;;;;;37.20;14.68;;;;;;;;;;5098893;28;20064;-76
2021/12/29 02:48:07;;;;;;;32.28;15.07;;;;;;;;;;5107172;28;20481;-76
2021/12/29 02:50:34;;;;;;;29.83;13.27;;;;;;;;;;5097087;28;20040;-76
2021/12/29 02:53:00;;;;;;;27.92;14.02;;;;;;;;;;5105153;28;20036;-76
2021/12/29 02:55:26;;;;;;;31.42;13.57;;;;;;;;;;5095473;28;20084;-76
2021/12/29 02:57:52;;;;;;;30.20;13.90;;;;;;;;;;5101932;28;20054;-76
2021/12/29 03:00:18;;;;;;;30.70;12.85;;;;;;;;;;5105433;28;20032;-76
2021/12/29 03:02:46;;;;;;;25.73;12.65;;;;;;;;;;5100279;28;20592;-76
2021/12/29 03:05:12;;;;;;;27.27;11.70;;;;;;;;;;5088427;28;20032;-76
2021/12/29 03:07:38;;;;;;;24.90;12.32;;;;;;;;;;5099729;28;20036;-76
2021/12/29 03:10:04;;;;;;;24.20;11.02;;;;;;;;;;5104049;28;20378;-76
2021/12/29 03:12:30;;;;;;;25.80;10.75;;;;;;;;;;5103855;28;20485;-75
2021/12/29 03:14:58;;;;;;;23.85;10.90;;;;;;;;;;5106832;28;20043;-75
2021/12/29 03:17:24;;;;;;;23.05;11.35;;;;;;;;;;5088387;28;20028;-75
2021/12/29 03:19:50;;;;;;;21.98;11.80;;;;;;;;;;5105668;28;20028;-75
2021/12/29 03:22:16;;;;;;;25.38;11.35;;;;;;;;;;5106202;28;20028;-75
2021/12/29 03:24:42;;;;;;;27.13;11.07;;;;;;;;;;5107625;28;20032;-75
2021/12/29 03:27:08;;;;;;;20.25;11.38;;;;;;;;;;5106997;28;20035;-75
2021/12/29 03:29:34;;;;;;;21.58;11.13;;;;;;;;;;5101279;28;20028;-75
2021/12/29 03:32:06;;;;;;;24.77;11.70;;;;;;;;;;5102837;27;20043;-75
2021/12/29 03:34:32;;;;;;;19.27;10.88;;;;;;;;;;5104839;28;20442;-76
2021/12/29 03:36:58;;;;;;;22.08;10.80;;;;;;;;;;5100966;28;20063;-76
2021/12/29 03:39:26;;;;;;;23.23;11.40;;;;;;;;;;5102995;28;20067;-75
2021/12/29 03:41:52;;;;;;;24.90;11.85;;;;;;;;;;5095675;28;20099;-75
2021/12/29 03:44:18;;;;;;;22.15;11.77;;;;;;;;;;5085093;28;20039;-75
2021/12/29 03:46:44;;;;;;;18.48;11.32;;;;;;;;;;5109697;28;20040;-75
2021/12/29 03:49:10;;;;;;;28.85;12.00;;;;;;;;;;5100496;28;20073;-75
2021/12/29 03:51:36;;;;;;;18.35;10.80;;;;;;;;;;5090794;28;20071;-75
2021/12/29 03:54:04;;;;;;;22.70;10.95;;;;;;;;;;5103320;28;20045;-75
2021/12/29 03:56:31;;;;;;;20.85;10.07;;;;;;;;;;5101169;28;20127;-75
2021/12/29 03:58:57;;;;;;;20.75;11.25;;;;;;;;;;5099416;28;20035;-75
2021/12/29 04:01:25;;;;;;;30.83;9.77;;;;;;;;;;5095401;28;20976;-75
2021/12/29 04:03:52;;;;;;;25.88;10.50;;;;;;;;;;5095676;28;20024;-75
2021/12/29 04:06:19;;;;;;;39.03;11.63;;;;;;;;;;5101078;27;20028;-75
2021/12/29 04:08:45;;;;;;;26.80;11.35;;;;;;;;;;5104573;28;20036;-75
2021/12/29 04:11:12;;;;;;;38.30;11.98;;;;;;;;;;5085983;28;20636;-75
2021/12/29 04:13:38;;;;;;;41.03;12.40;;;;;;;;;;5105535;28;20166;-75
2021/12/29 04:16:05;;;;;;;31.90;11.93;;;;;;;;;;5102829;28;20032;-75
2021/12/29 04:18:31;;;;;;;33.72;11.95;;;;;;;;;;5107587;28;20043;-75
2021/12/29 04:21:00;;;;;;;28.25;12.15;;;;;;;;;;5085247;28;20031;-75
2021/12/29 04:23:33;;;;;;;34.10;13.70;;;;;;;;;;5099793;28;20038;-75
2021/12/29 04:26:01;;;;;;;28.05;11.82;;;;;;;;;;5103580;28;20386;-74
2021/12/29 04:28:27;;;;;;;33.05;13.30;;;;;;;;;;5109793;28;20478;-74
2021/12/29 04:30:55;;;;;;;33.35;12.40;;;;;;;;;;5101716;28;20043;-74
2021/12/29 04:33:22;;;;;;;33.88;12.38;;;;;;;;;;5103083;28;20046;-75
2021/12/29 04:35:48;;;;;;;35.22;13.80;;;;;;;;;;5107394;28;20028;-75
2021/12/29 04:38:14;;;;;;;29.40;12.27;;;;;;;;;;5105796;28;20036;-74
2021/12/29 04:40:40;;;;;;;30.75;12.13;;;;;;;;;;5114675;27;20027;-75
2021/12/29 04:43:06;;;;;;;28.55;12.52;;;;;;;;;;5089446;28;20043;-74
2021/12/29 04:45:33;;;;;;;44.38;13.25;;;;;;;;;;5111650;28;20035;-75
2021/12/29 04:48:00;;;;;;;33.42;12.40;;;;;;;;;;5109678;28;20023;-74
2021/12/29 04:50:36;;;;;;;44.10;13.98;;;;;;;;;;5100809;28;20088;-74
2021/12/29 04:53:02;;;;;;;36.03;13.27;;;;;;;;;;5079495;28;20077;-74
2021/12/29 04:55:29;;;;;;;49.53;14.65;;;;;;;;;;5104030;28;20032;-74
2021/12/29 04:57:55;;;;;;;44.08;12.82;;;;;;;;;;5104260;27;20032;-74
2021/12/29 05:00:24;;;;;;;48.17;15.05;;;;;;;;;;5098299;28;20028;-74
2021/12/29 05:02:50;;;;;;;51.78;14.75;;;;;;;;;;5105211;28;20052;-74
2021/12/29 05:08:28;;;;;;;59.70;14.38;;;;;;;;;;5076150;28;20052;-75
2021/12/29 05:10:55;;;;;;;55.50;14.68;;;;;;;;;;5110139;28;20031;-74
2021/12/29 05:13:21;;;;;;;55.97;14.20;;;;;;;;;;5111227;27;20042;-74
2021/12/29 05:15:48;;;;;;;50.97;14.32;;;;;;;;;;5110137;28;20352;-75
2021/12/29 05:18:14;;;;;;;44.67;14.75;;;;;;;;;;5105723;28;20020;-74
2021/12/29 05:20:40;;;;;;;48.28;14.85;;;;;;;;;;5109608;28;20031;-75
2021/12/29 05:23:06;;;;;;;46.88;15.05;;;;;;;;;;5110165;28;20031;-75
2021/12/29 05:25:32;;;;;;;45.08;15.50;;;;;;;;;;5102379;28;20564;-75
2021/12/29 05:27:58;;;;;;;45.58;14.45;;;;;;;;;;5112120;28;20084;-75
2021/12/29 05:30:24;;;;;;;39.85;14.70;;;;;;;;;;5112384;28;20036;-75
2021/12/29 05:32:50;;;;;;;49.08;15.48;;;;;;;;;;5114441;27;20189;-75
2021/12/29 05:35:16;;;;;;;35.15;14.15;;;;;;;;;;5109742;28;20028;-75
2021/12/29 05:37:43;;;;;;;45.58;14.40;;;;;;;;;;5110939;28;20038;-75
2021/12/29 05:40:09;;;;;;;47.85;14.65;;;;;;;;;;5107274;28;20036;-74
2021/12/29 05:42:35;;;;;;;49.45;14.98;;;;;;;;;;5103826;28;20492;-75
2021/12/29 05:45:03;;;;;;;45.42;13.52;;;;;;;;;;5089859;28;20115;-75
2021/12/29 05:47:29;;;;;;;43.58;14.40;;;;;;;;;;5104970;27;20032;-75
2021/12/29 05:49:55;;;;;;;40.38;15.10;;;;;;;;;;5086690;28;20043;-75
2021/12/29 05:52:21;;;;;;;47.92;15.40;;;;;;;;;;5103513;28;20032;-75
2021/12/29 05:54:47;;;;;;;46.03;14.38;;;;;;;;;;5106223;28;20030;-75
2021/12/29 05:57:13;;;;;;;42.42;14.40;;;;;;;;;;5108051;28;20067;-75
2021/12/29 05:59:39;;;;;;;44.28;14.50;;;;;;;;;;5101109;28;20602;-76
2021/12/29 06:02:05;;;;;;;52.00;14.63;;;;;;;;;;5106989;28;20453;-76
2021/12/29 06:04:31;;;;;;;64.80;16.15;;;;;;;;;;5107449;28;20067;-76
2021/12/29 06:06:58;;;;;;;49.22;15.77;;;;;;;;;;5109743;27;20869;-75
2021/12/29 06:09:24;;;;;;;62.97;15.45;;;;;;;;;;5109141;28;20039;-76
2021/12/29 06:11:50;;;;;;;55.45;15.18;;;;;;;;;;5105121;28;20044;-75
2021/12/29 06:14:16;;;;;;;49.83;14.48;;;;;;;;;;5104080;28;20489;-75
2021/12/29 06:16:42;;;;;;;58.38;14.63;;;;;;;;;;5101331;28;20068;-75
2021/12/29 06:19:08;;;;;;;43.17;15.02;;;;;;;;;;5093036;28;20028;-74
2021/12/29 06:21:34;;;;;;;52.25;15.90;;;;;;;;;;5101701;28;20421;-75
2021/12/29 06:24:00;;;;;;;43.42;14.20;;;;;;;;;;5104281;28;20035;-75
2021/12/29 06:26:26;;;;;;;50.03;14.07;;;;;;;;;;5101124;28;20146;-75
2021/12/29 06:28:52;;;;;;;55.65;14.80;;;;;;;;;;5104642;28;20102;-75
2021/12/29 06:31:18;;;;;;;40.70;14.57;;;;;;;;;;5111617;27;20028;-75
2021/12/29 06:33:46;;;;;;;56.83;14.43;;;;;;;;;;5091955;28;20054;-75
2021/12/29 06:36:12;;;;;;;57.45;15.23;;;;;;;;;;5104558;28;20027;-74
2021/12/29 06:38:38;;;;;;;45.40;15.85;;;;;;;;;;5101577;28;20028;-75
2021/12/29 06:41:04;;;;;;;55.63;15.18;;;;;;;;;;5110264;28;20114;-75
2021/12/29 06:43:30;;;;;;;47.60;14.05;;;;;;;;;;5088067;28;20168;-76
2021/12/29 06:45:56;;;;;;;57.70;14.30;;;;;;;;;;5105653;28;20069;-76
2021/12/29 06:48:22;;;;;;;46.47;13.95;;;;;;;;;;5102923;28;20031;-76
2021/12/29 06:50:48;;;;;;;54.72;13.52;;;;;;;;;;5110685;28;20031;-76
2021/12/29 06:53:14;;;;;;;46.65;15.35;;;;;;;;;;5101326;28;20024;-76
2021/12/29 06:55:42;;;;;;;65.00;15.75;;;;;;;;;;5108961;28;20031;-75
2021/12/29 06:58:08;;;;;;;62.80;16.10;;;;;;;;;;5098202;28;20396;-75
2021/12/29 07:00:34;;;;;;;53.50;13.88;;;;;;;;;;5090094;28;20446;-79
2021/12/29 07:03:01;;;;;;;49.90;13.23;;;;;;;;;;5101364;28;20096;-77
2021/12/29 07:05:27;;;;;;;57.80;15.93;;;;;;;;;;5086889;28;20027;-78
2021/12/29 07:07:54;;;;;;;64.55;14.73;;;;;;;;;;5104471;28;20038;-78
2021/12/29 07:10:21;;;;;;;65.82;15.93;;;;;;;;;;5093168;28;20031;-78
2021/12/29 07:12:47;;;;;;;70.22;14.30;;;;;;;;;;5103522;28;20089;-78
2021/12/29 07:15:13;;;;;;;57.35;14.38;;;;;;;;;;5105917;28;20027;-79
2021/12/29 07:17:39;;;;;;;73.38;16.38;;;;;;;;;;5105360;28;20042;-78
2021/12/29 07:20:06;;;;;;;76.50;15.07;;;;;;;;;;5108417;28;20042;-77
2021/12/29 07:22:32;;;;;;;66.97;12.52;;;;;;;;;;5105101;28;20141;-78
2021/12/29 07:24:58;;;;;;;74.40;14.70;;;;;;;;;;5088824;28;20114;-77
2021/12/29 07:27:24;;;;;;;96.97;14.65;;;;;;;;;;5108382;28;20051;-77
2021/12/29 07:29:50;;;;;;;76.40;12.30;;;;;;;;;;5107376;27;20040;-77
2021/12/29 07:32:16;;;;;;;144.20;14.38;;;;;;;;;;5103339;27;20505;-77
2021/12/29 07:34:42;;;;;;;133.15;15.15;;;;;;;;;;5100177;28;20047;-78
2021/12/29 07:37:08;;;;;;;74.85;12.32;;;;;;;;;;5111234;28;20027;-77
2021/12/29 07:39:34;;;;;;;155.52;14.32;;;;;;;;;;5100296;28;20389;-77
2021/12/29 07:42:00;;;;;;;110.30;12.77;;;;;;;;;;5111040;28;20032;-77
2021/12/29 07:44:27;;;;;;;204.57;15.70;;;;;;;;;;5099982;28;20503;-78
2021/12/29 07:46:55;;;;;;;110.50;12.82;;;;;;;;;;5104609;27;20036;-77
2021/12/29 07:49:22;;;;;;;102.22;15.23;;;;;;;;;;5100147;28;20036;-77
2021/12/29 07:51:48;;;;;;;187.55;18.42;;;;;;;;;;5100578;28;20485;-75
2021/12/29 07:54:14;;;;;;;124.25;12.20;;;;;;;;;;5101512;28;20028;-78
2021/12/29 07:56:41;;;;;;;148.02;14.85;;;;;;;;;;5107593;28;20110;-76
2021/12/29 07:59:07;;;;;;;86.82;12.73;;;;;;;;;;5072710;28;20122;-76
2021/12/29 08:01:33;;;;;;;122.35;13.00;;;;;;;;;;5067693;28;20441;-75
2021/12/29 08:03:59;;;;;;;76.70;11.18;;;;;;;;;;5091001;27;20023;-77
2021/12/29 08:06:27;;;;;;;130.80;13.50;;;;;;;;;;5100880;28;20055;-77
2021/12/29 08:08:53;;;;;;;103.28;12.70;;;;;;;;;;5107155;28;20044;-77
2021/12/29 08:11:19;;;;;;;113.78;12.57;;;;;;;;;;5101121;28;20436;-76
2021/12/29 08:13:46;;;;;;;112.35;12.07;;;;;;;;;;5108945;28;20389;-76
2021/12/29 08:16:12;;;;;;;100.57;12.75;;;;;;;;;;5102079;28;20028;-76
2021/12/29 08:18:38;;;;;;;151.50;13.00;;;;;;;;;;5107788;28;20383;-76
2021/12/29 08:21:04;;;;;;;169.95;13.10;;;;;;;;;;5100999;28;20031;-76
2021/12/29 08:23:31;;;;;;;85.35;10.05;;;;;;;;;;5099263;28;20035;-76
2021/12/29 08:25:57;;;;;;;144.07;12.32;;;;;;;;;;5098093;28;20370;-77
2021/12/29 08:28:24;;;;;;;76.25;9.10;;;;;;;;;;5103470;28;20106;-76
2021/12/29 08:30:50;;;;;;;69.88;9.23;;;;;;;;;;5101147;28;20048;-77
2021/12/29 08:33:16;;;;;;;44.72;8.43;;;;;;;;;;5100865;28;20039;-77
2021/12/29 08:35:42;;;;;;;36.33;9.35;;;;;;;;;;5097998;28;20030;-77
2021/12/29 08:38:08;;;;;;;20.15;7.82;;;;;;;;;;5099603;28;20080;-77
2021/12/29 08:40:34;;;;;;;24.92;8.77;;;;;;;;;;5097996;28;20096;-77
2021/12/29 08:43:02;;;;;;;21.45;8.85;;;;;;;;;;5103526;28;20032;-77
2021/12/29 08:45:28;;;;;;;25.13;9.07;;;;;;;;;;5088671;28;20499;-76
2021/12/29 08:47:57;;;;;;;21.88;8.45;;;;;;;;;;5100736;28;20040;-73
2021/12/29 08:50:25;;;;;;;20.85;8.70;;;;;;;;;;5106718;28;20112;-76
2021/12/29 08:52:51;;;;;;;42.90;20.77;;;;;;;;;;5098435;28;20038;-76
2021/12/29 08:55:18;;;;;;;36.75;17.85;;;;;;;;;;5108698;28;20028;-76
2021/12/29 08:57:44;;;;;;;26.58;10.65;;;;;;;;;;5108826;28;20145;-75
2021/12/29 09:00:14;;;;;;;22.42;9.20;;;;;;;;;;5104261;28;20040;-75
2021/12/29 09:02:41;;;;;;;21.70;8.90;;;;;;;;;;5102358;28;20097;-77
2021/12/29 09:05:08;;;;;;;19.75;9.52;;;;;;;;;;5104706;28;20051;-77
2021/12/29 09:07:34;;;;;;;24.85;10.38;;;;;;;;;;5107252;28;20417;-77
2021/12/29 09:10:03;;;;;;;27.23;10.88;;;;;;;;;;5104431;28;20028;-76
2021/12/29 09:12:29;;;;;;;23.70;10.20;;;;;;;;;;5104377;28;20033;-75
2021/12/29 09:14:55;;;;;;;24.92;8.88;;;;;;;;;;5102322;28;20694;-76
2021/12/29 09:17:21;;;;;;;22.08;9.68;;;;;;;;;;5108695;28;20394;-76
2021/12/29 09:19:47;;;;;;;20.65;8.02;;;;;;;;;;5101967;28;20027;-76
2021/12/29 09:22:14;;;;;;;24.17;9.23;;;;;;;;;;5109005;28;20493;-76
2021/12/29 09:24:40;;;;;;;26.00;8.98;;;;;;;;;;5105853;28;20033;-77
2021/12/29 09:27:06;;;;;;;19.45;8.38;;;;;;;;;;5109155;28;20067;-77
2021/12/29 09:29:35;;;;;;;23.10;8.95;;;;;;;;;;5108369;27;20027;-78
2021/12/29 09:32:03;;;;;;;21.55;9.45;;;;;;;;;;5111500;28;20027;-78
2021/12/29 09:34:29;;;;;;;38.75;20.10;;;;;;;;;;5104996;28;20481;-79
2021/12/29 09:36:55;;;;;;;21.77;9.25;;;;;;;;;;5103761;28;20027;-78
2021/12/29 09:39:21;;;;;;;21.75;7.55;;;;;;;;;;5104403;28;20370;-78
2021/12/29 09:41:48;;;;;;;20.48;6.53;;;;;;;;;;5085923;28;20397;-78
2021/12/29 09:44:14;;;;;;;20.42;6.95;;;;;;;;;;5107559;28;20031;-78
2021/12/29 09:46:40;;;;;;;19.45;8.15;;;;;;;;;;5099368;28;20061;-77
2021/12/29 09:49:06;;;;;;;21.17;6.25;;;;;;;;;;5092576;28;20036;-78
2021/12/29 09:51:33;;;;;;;17.27;5.97;;;;;;;;;;5105262;28;20024;-75
2021/12/29 09:53:59;;;;;;;21.00;5.90;;;;;;;;;;5105145;28;20039;-75
2021/12/29 09:56:28;;;;;;;19.25;6.80;;;;;;;;;;5099064;28;20094;-78
2021/12/29 09:58:55;;;;;;;17.00;5.68;;;;;;;;;;5109833;28;20447;-78
2021/12/29 10:01:21;;;;;;;20.10;5.80;;;;;;;;;;5103008;28;20020;-78
2021/12/29 10:03:47;;;;;;;18.85;5.47;;;;;;;;;;5108296;27;20040;-78
2021/12/29 10:06:14;;;;;;;17.15;4.72;;;;;;;;;;5106396;28;20040;-78
2021/12/29 10:08:47;;;;;;;23.35;5.63;;;;;;;;;;5101348;28;20028;-78
2021/12/29 10:11:27;;;;;;;;;;;8.30;99.90;;;;;;5104454;28;20403;-78
2021/12/29 10:13:53;;;;;;;17.70;5.82;;;;;;;;;;5107434;28;19939;-78
2021/12/29 10:16:24;;;;;;;32.17;7.10;;;;;;;;;;5099780;28;20067;-78
2021/12/29 10:18:54;;;;;;;21.65;5.95;;;;;;;;;;5100874;28;20034;-78
2021/12/29 10:21:22;;;;;;;27.48;9.90;;;;;;;;;;5098144;28;20078;-78
2021/12/29 10:23:50;;;;;;;19.88;5.88;;;;;;;;;;5096631;28;20047;-78
2021/12/29 10:26:18;;;;;;;21.23;5.43;;;;;;;;;;5104908;28;20039;-78
2021/12/29 10:28:47;;;;;;;21.17;6.07;;;;;;;;;;5102677;28;20150;-78
2021/12/29 10:31:15;;;;;;;21.48;5.38;;;;;;;;;;5104279;28;20032;-78
2021/12/29 10:33:48;;;;;;;20.50;5.65;;;;;;;;;;5085997;28;20047;-78
2021/12/29 10:36:23;;;;;;;24.40;6.63;;;;;;;;;;5106290;28;20020;-78
2021/12/29 10:39:17;;;;;;;31.52;6.70;;;8.50;99.90;;;;;;5108573;27;20080;-78
2021/12/29 10:41:48;;;;;;;27.77;5.60;;;;;;;;;;5084347;28;20093;-78
2021/12/29 10:44:14;;;;;;;22.05;5.70;;;;;;;;;;5103345;28;20358;-79
2021/12/29 10:46:41;;;;;;;24.45;5.00;;;;;;;;;;5105880;28;20019;-78
2021/12/29 10:49:08;;;;;;;22.98;5.20;;;;;;;;;;5104956;28;20031;-79
2021/12/29 10:51:35;;;;;;;29.33;5.10;;;;;;;;;;5084757;28;20804;-79
2021/12/29 10:54:09;;;;;;;22.73;4.07;;;;;;;;;;5101327;27;20032;-78
2021/12/29 10:56:35;;;;;;;23.45;5.40;;;;;;;;;;5084672;28;20024;-78
2021/12/29 10:59:11;;;;;;;26.55;5.55;;;;;;;;;;5101255;28;20074;-78
2021/12/29 11:01:37;;;;;;;30.17;5.80;;;;;;;;;;5101550;28;20103;-78
2021/12/29 11:04:04;;;;;;;27.48;4.80;;;;;;;;;;5085109;28;20147;-78
2021/12/29 11:06:30;;;;;;;27.02;5.65;;;;;;;;;;5102290;28;20020;-78
2021/12/29 11:08:57;;;;;;;23.85;5.32;;;;;;;;;;5096951;28;20096;-78
2021/12/29 11:11:34;;;;;;;17.33;5.20;;;;;;;;;;5101703;27;20103;-78
2021/12/29 11:14:12;;;;;;;65.78;25.65;;;;;;;;;;5097875;28;20036;-79
2021/12/29 11:16:39;;;;;;;21.75;4.68;;;;;;;;;;5103809;28;20106;-76
2021/12/29 11:19:05;;;;;;;24.05;4.90;;;;;;;;;;5103502;28;20028;-75
2021/12/29 11:21:33;;;;;;;22.63;4.88;;;;;;;;;;5101774;28;20024;-77
2021/12/29 11:24:14;;;;;;;31.35;4.72;;;8.90;99.90;;;;;;5100656;28;20186;-76
2021/12/29 11:26:41;;;;;;;25.52;6.32;;;;;;;;;;5104629;28;20024;-77
2021/12/29 11:29:12;;;;;;;28.40;6.95;;;;;;;;;;5101301;28;20040;-77
2021/12/29 11:31:49;;;;;;;16.15;4.28;;;;;;;;;;5111295;28;20027;-76
2021/12/29 11:34:26;;;;;;;19.70;3.85;;;;;;;;;;5101910;28;20131;-76
2021/12/29 11:37:03;;;;;;;21.65;4.05;;;;;;;;;;5095431;28;20020;-77
2021/12/29 11:39:30;;;;;;;21.00;3.85;;;;;;;;;;5110556;28;20512;-76
2021/12/29 11:41:57;;;;;;;24.00;4.90;;;;;;;;;;5090420;28;20075;-77
2021/12/29 11:44:23;;;;;;;17.38;3.65;;;;;;;;;;5106652;28;20493;-77
2021/12/29 11:46:49;;;;;;;21.83;4.60;;;;;;;;;;5106325;27;20707;-78
2021/12/29 11:49:15;;;;;;;13.43;3.75;;;;;;;;;;5099936;28;20084;-77
2021/12/29 11:51:52;;;;;;;18.75;4.40;;;;;;;;;;5106542;28;20035;-77
2021/12/29 11:54:20;;;;;;;18.58;7.38;;;;;;;;;;5091561;28;20052;-77
2021/12/29 11:56:47;;;;;;;27.92;6.80;;;;;;;;;;5086022;28;20116;-78
2021/12/29 11:59:15;;;;;;;14.90;4.10;;;;;;;;;;5102807;28;20051;-77
2021/12/29 12:01:41;;;;;;;25.27;4.47;;;;;;;;;;5103510;28;20028;-77
2021/12/29 12:04:10;;;;;;;14.48;4.30;;;;;;;;;;5108686;27;20081;-76
2021/12/29 12:06:38;;;;;;;18.20;4.38;;;;;;;;;;5085422;28;20400;-77
2021/12/29 12:09:25;;;;;;;14.80;3.40;;;;;;;;;;5101860;28;20118;-75
2021/12/29 12:11:51;;;;;;;17.88;4.30;;;;;;;;;;5100380;28;20028;-76
2021/12/29 12:14:27;;;;;;;22.23;9.05;;;;;;;;;;5097526;28;20030;-77
2021/12/29 12:17:01;;;;;;;20.45;4.22;;;;;;;;;;5103775;28;20062;-75
2021/12/29 12:19:28;;;;;;;16.63;3.80;;;;;;;;;;5104647;28;20457;-76
2021/12/29 12:22:20;;;;;;;14.40;3.63;;;8.70;99.90;;;;;;5106187;28;20039;-76
2021/12/29 12:24:53;;;;;;;12.37;4.10;;;;;;;;;;5104087;28;20050;-77
2021/12/29 12:27:26;;;;;;;15.23;4.22;;;;;;;;;;5103127;28;20024;-77
2021/12/29 12:30:00;;;;;;;14.05;3.60;;;;;;;;;;5103748;28;20035;-77
2021/12/29 12:32:26;;;;;;;12.35;4.68;;;;;;;;;;5095112;28;20036;-77
2021/12/29 12:35:01;;;;;;;11.30;4.90;;;;;;;;;;5101223;28;20028;-77
2021/12/29 12:37:30;;;;;;;16.73;3.67;;;;;;;;;;5096790;28;20024;-77
2021/12/29 12:39:56;;;;;;;17.63;4.30;;;;;;;;;;5080163;28;20044;-77
2021/12/29 12:42:23;;;;;;;15.68;3.38;;;;;;;;;;5103344;28;20371;-76
2021/12/29 12:44:49;;;;;;;8.35;3.28;;;;;;;;;;5098450;28;20391;-77
2021/12/29 12:47:16;;;;;;;13.32;4.50;;;;;;;;;;5099447;28;20117;-78
2021/12/29 12:49:45;;;;;;;19.17;6.22;;;8.60;99.90;;;;;;5094299;28;20039;-77
2021/12/29 12:52:12;;;;;;;12.93;4.53;;;;;;;;;;5097719;28;20032;-77
2021/12/29 12:54:44;;;;;;;13.48;3.58;;;;;;;;;;5098598;28;20107;-77
2021/12/29 12:57:10;;;;;;;13.52;3.80;;;;;;;;;;5098242;28;20036;-75
2021/12/29 12:59:37;;;;;;;14.73;4.75;;;;;;;;;;5082613;28;20118;-79
2021/12/29 13:02:12;;;;;;;16.60;4.47;;;;;;;;;;5104293;28;20385;-77
2021/12/29 13:05:02;;;;;;;19.70;4.32;;;8.70;99.90;;;;;;5105222;27;20031;-77
2021/12/29 13:07:28;;;;;;;16.92;5.78;;;;;;;;;;5101644;28;20039;-77
2021/12/29 13:09:54;;;;;;;15.82;4.97;;;;;;;;;;5102138;27;20046;-77
2021/12/29 13:12:28;;;;;;;18.17;5.03;;;;;;;;;;5101999;28;20035;-76
2021/12/29 13:15:13;;;;;;;13.00;4.75;;;8.40;99.90;;;;;;5100291;28;20028;-77
2021/12/29 13:17:42;;;;;;;14.60;4.00;;;8.70;99.90;;;;;;5099426;28;20024;-76
2021/12/29 13:20:08;;;;;;;14.80;4.50;;;;;;;;;;5103952;28;20031;-77
2021/12/29 13:22:36;;;;;;;17.70;7.50;;;;;;;;;;5112286;28;20114;-76
2021/12/29 13:25:13;;;;;;;28.67;10.80;;;;;;;;;;5109190;28;20026;-76
2021/12/29 13:27:41;;;;;;;30.90;14.93;;;;;;;;;;5109424;27;20043;-76
2021/12/29 13:30:10;;;;;;;17.50;6.13;;;;;;;;;;5107753;28;20413;-76
2021/12/29 13:32:46;;;;;;;18.73;5.45;;;;;;;;;;5090696;28;20382;-76
2021/12/29 13:35:12;;;;;;;18.63;5.32;;;;;;;;;;5104193;28;20030;-77
2021/12/29 13:37:39;;;;;;;23.00;6.07;;;;;;;;;;5101242;28;20095;-77
2021/12/29 13:40:09;;;;;;;16.58;6.13;;;;;;;;;;5102085;28;20043;-77
2021/12/29 13:42:40;;;;;;;24.17;7.60;;;8.90;99.90;;;;;;5100382;28;20075;-76
2021/12/29 13:45:06;;;;;;;27.02;5.60;;;;;;;;;;5099539;27;20028;-76
2021/12/29 13:47:32;;;;;;;21.60;5.38;;;;;;;;;;5102713;28;20115;-76
2021/12/29 13:50:10;;;;;;;25.30;6.57;;;;;;;;;;5102259;28;20036;-76
2021/12/29 13:52:36;;;;;;;12.48;5.35;;;;;;;;;;5101752;28;20321;-76
2021/12/29 13:55:03;;;;;;;15.23;6.13;;;;;;;;;;5105962;28;20525;-78
2021/12/29 13:57:29;;;;;;;25.52;8.18;;;;;;;;;;5108074;28;20069;-76
2021/12/29 13:59:57;;;;;;;35.40;9.20;;;;;;;;;;5101893;28;20035;-76
2021/12/29 14:02:23;;;;;;;23.58;11.82;;;;;;;;;;5102686;27;20077;-76
2021/12/29 14:04:52;;;;;;;21.58;8.15;;;;;;;;;;5103823;28;20039;-75
2021/12/29 14:07:20;;;;;;;25.70;8.95;;;;;;;;;;5099394;28;20125;-76
2021/12/29 14:09:47;;;;;;;34.50;10.43;;;;;;;;;;5105193;28;20428;-76
2021/12/29 14:12:14;;;;;;;20.48;8.52;;;;;;;;;;5103408;28;20508;-75
2021/12/29 14:14:41;;;;;;;24.20;7.63;;;;;;;;;;5097965;28;20038;-76
2021/12/29 14:17:21;;;;;;;20.15;7.13;;;;;;;;;;5102544;28;20039;-76
2021/12/29 14:19:47;;;;;;;22.33;8.50;;;;;;;;;;5103269;27;20073;-74
2021/12/29 14:22:27;;;;;;;25.92;7.88;;;;;;;;;;5102500;28;20489;-76
2021/12/29 14:24:53;;;;;;;26.70;8.52;;;;;;;;;;5104603;28;20038;-77
2021/12/29 14:27:25;;;;;;;27.35;8.57;;;;;;;;;;5105799;28;20042;-77